Time;durP1;ratioP1;P1;durP2;ratioP2;P2;SDS_P1;SDS_P2;PMS_P1;PMS_P2;Temp;Humidity;BMP_temperature;BMP_pressure;BME280_temperature;BME280_humidity;BME280_pressure;Samples;Min_cycle;Max_cycle;Signal;HPM_P1;HPM_P2
2023/07/02 00:00:23;;;;;;;16.80;5.63;;;16.30;99.90;;;;;;5041880;28;20063;-72
2023/07/02 00:02:48;;;;;;;18.20;6.10;;;16.30;99.90;;;;;;5070316;28;20044;-72
2023/07/02 00:05:14;;;;;;;14.60;5.53;;;16.20;99.90;;;;;;5080154;28;20420;-72
2023/07/02 00:07:40;;;;;;;13.68;6.05;;;16.20;99.90;;;;;;5056940;28;20040;-72
2023/07/02 00:10:06;;;;;;;13.85;5.95;;;16.20;99.90;;;;;;5072303;28;20468;-71
2023/07/02 00:12:31;;;;;;;16.10;5.95;;;16.10;99.90;;;;;;5071219;28;20070;-71
2023/07/02 00:14:57;;;;;;;17.45;6.32;;;16.10;99.90;;;;;;5072568;28;20041;-71
2023/07/02 00:17:22;;;;;;;19.23;6.65;;;16.10;99.90;;;;;;5090303;28;20115;-71
2023/07/02 00:19:51;;;;;;;13.18;5.50;;;16.10;99.90;;;;;;5056684;28;20102;-72
2023/07/02 00:22:17;;;;;;;15.77;6.05;;;16.10;99.90;;;;;;5045414;28;20036;-71
2023/07/02 00:24:42;;;;;;;15.32;5.95;;;16.10;99.90;;;;;;5071965;28;20078;-72
2023/07/02 00:27:08;;;;;;;18.65;6.82;;;16.10;99.90;;;;;;5056387;28;20090;-72
2023/07/02 00:29:34;;;;;;;19.40;7.28;;;16.00;99.90;;;;;;5050834;28;20123;-72
2023/07/02 00:31:59;;;;;;;17.83;6.55;;;16.00;99.90;;;;;;5052893;28;20044;-72
2023/07/02 00:34:26;;;;;;;19.45;7.07;;;16.00;99.90;;;;;;5052899;28;20076;-71
2023/07/02 00:36:52;;;;;;;19.98;6.97;;;15.90;99.90;;;;;;5067712;28;20041;-71
2023/07/02 00:39:17;;;;;;;19.95;7.15;;;15.90;99.90;;;;;;5054619;28;20110;-71
2023/07/02 00:41:46;;;;;;;16.92;6.80;;;15.90;99.90;;;;;;5071751;28;20051;-71
2023/07/02 00:44:12;;;;;;;20.83;7.18;;;15.80;99.90;;;;;;5070686;28;20056;-71
2023/07/02 00:46:38;;;;;;;19.17;7.35;;;15.80;99.90;;;;;;5053665;28;20140;-71
2023/07/02 00:49:04;;;;;;;16.05;7.20;;;15.90;99.90;;;;;;5056028;28;20497;-71
2023/07/02 00:51:30;;;;;;;15.82;7.43;;;15.80;99.90;;;;;;5055938;28;20503;-71
2023/07/02 00:53:57;;;;;;;16.70;6.78;;;15.80;99.90;;;;;;5054887;28;20043;-71
2023/07/02 00:56:25;;;;;;;17.60;7.38;;;15.70;99.90;;;;;;5072685;28;20047;-71
2023/07/02 00:58:52;;;;;;;22.17;7.30;;;15.70;99.90;;;;;;5055902;28;20047;-72
2023/07/02 01:01:20;;;;;;;17.50;7.43;;;15.70;99.90;;;;;;5070496;28;20071;-72
2023/07/02 01:03:53;;;;;;;21.85;8.30;;;15.70;99.90;;;;;;5039087;28;20041;-71
2023/07/02 01:06:24;;;;;;;19.95;7.55;;;15.70;99.90;;;;;;5055308;28;20040;-71
2023/07/02 01:08:52;;;;;;;17.92;7.10;;;15.70;99.90;;;;;;5072408;28;20484;-72
2023/07/02 01:11:19;;;;;;;15.05;6.75;;;15.60;99.90;;;;;;5072445;28;20041;-72
2023/07/02 01:13:45;;;;;;;20.70;7.50;;;15.50;99.90;;;;;;5054547;28;20115;-72
2023/07/02 01:16:11;;;;;;;16.80;7.68;;;15.40;99.90;;;;;;5071400;28;20119;-72
2023/07/02 01:18:38;;;;;;;19.10;7.60;;;15.50;99.90;;;;;;5055624;28;20040;-71
2023/07/02 01:21:06;;;;;;;17.90;7.90;;;15.40;99.90;;;;;;5055667;28;20033;-72
2023/07/02 01:23:33;;;;;;;18.20;7.10;;;15.30;99.90;;;;;;5072136;28;20051;-72
2023/07/02 01:25:59;;;;;;;20.23;7.63;;;15.30;99.90;;;;;;5038035;28;20559;-72
2023/07/02 01:28:34;;;;;;;18.38;7.85;;;15.30;99.90;;;;;;5055914;28;20129;-72
2023/07/02 01:30:59;;;;;;;20.08;7.53;;;15.30;99.90;;;;;;5050432;28;20051;-72
2023/07/02 01:33:25;;;;;;;20.23;7.53;;;15.20;99.90;;;;;;5044972;28;20484;-72
2023/07/02 01:35:50;;;;;;;18.20;7.82;;;15.20;99.90;;;;;;5046288;28;20033;-72
2023/07/02 01:38:16;;;;;;;22.98;8.00;;;15.10;99.90;;;;;;5058000;28;20039;-72
2023/07/02 01:40:42;;;;;;;19.15;6.95;;;15.10;99.90;;;;;;5041470;28;20044;-73
2023/07/02 01:43:07;;;;;;;21.60;8.15;;;15.10;99.90;;;;;;5040318;28;20051;-73
2023/07/02 01:45:33;;;;;;;21.98;8.15;;;15.10;99.90;;;;;;5051169;28;20497;-72
2023/07/02 01:47:58;;;;;;;16.23;7.50;;;15.10;99.90;;;;;;5044968;28;20065;-73
2023/07/02 01:50:24;;;;;;;26.85;8.05;;;15.00;99.90;;;;;;5026200;28;20067;-72
2023/07/02 01:52:49;;;;;;;24.77;8.43;;;15.00;99.90;;;;;;5041176;28;20087;-72
2023/07/02 01:55:17;;;;;;;19.38;7.55;;;15.00;99.90;;;;;;5054469;28;20036;-71
2023/07/02 01:57:43;;;;;;;20.70;8.43;;;15.00;99.90;;;;;;5024428;28;20063;-71
2023/07/02 02:00:09;;;;;;;20.00;8.23;;;14.90;99.90;;;;;;5038879;28;20033;-71
2023/07/02 02:02:34;;;;;;;22.17;8.63;;;14.90;99.90;;;;;;5054606;28;20083;-72
2023/07/02 02:05:00;;;;;;;19.13;8.38;;;14.90;99.90;;;;;;5036186;28;20080;-71
2023/07/02 02:07:26;;;;;;;21.75;8.65;;;14.90;99.90;;;;;;5037867;28;20830;-72
2023/07/02 02:09:52;;;;;;;26.17;8.45;;;14.90;99.90;;;;;;5041432;28;20041;-71
2023/07/02 02:12:17;;;;;;;27.08;9.57;;;14.90;99.90;;;;;;5037506;28;20404;-72
2023/07/02 02:14:43;;;;;;;23.58;8.32;;;14.90;99.90;;;;;;5039399;28;20041;-72
2023/07/02 02:17:08;;;;;;;19.23;7.43;;;14.90;99.90;;;;;;5038744;28;20045;-71
2023/07/02 02:19:34;;;;;;;21.63;7.60;;;14.80;99.90;;;;;;5047811;28;20044;-72
2023/07/02 02:22:00;;;;;;;20.05;8.60;;;14.90;99.90;;;;;;5054921;28;20048;-71
2023/07/02 02:24:25;;;;;;;20.23;7.68;;;14.80;99.90;;;;;;5046256;28;20048;-71
2023/07/02 02:26:51;;;;;;;20.02;8.13;;;14.80;99.90;;;;;;5029503;28;20029;-72
2023/07/02 02:29:16;;;;;;;20.13;8.82;;;14.90;99.90;;;;;;5040466;28;20051;-71
2023/07/02 02:31:43;;;;;;;21.35;7.57;;;14.90;99.90;;;;;;5033695;28;20067;-71
2023/07/02 02:34:09;;;;;;;23.23;8.25;;;14.90;99.90;;;;;;5067887;28;20419;-72
2023/07/02 02:36:34;;;;;;;20.73;8.45;;;14.80;99.90;;;;;;5070296;28;20098;-71
2023/07/02 02:39:00;;;;;;;23.05;8.13;;;14.80;99.90;;;;;;5054823;28;20048;-71
2023/07/02 02:41:25;;;;;;;26.77;8.07;;;14.80;99.90;;;;;;5070712;28;20047;-71
2023/07/02 02:43:51;;;;;;;20.55;8.45;;;14.70;99.90;;;;;;5069959;28;20044;-71
2023/07/02 02:46:21;;;;;;;20.95;8.73;;;14.80;99.90;;;;;;5061395;28;20048;-71
2023/07/02 02:48:47;;;;;;;21.98;8.10;;;14.70;99.90;;;;;;5061066;28;20563;-71
2023/07/02 02:51:12;;;;;;;18.92;7.88;;;14.60;99.90;;;;;;5039322;28;20045;-71
2023/07/02 02:53:38;;;;;;;21.45;7.88;;;14.70;99.90;;;;;;5023644;28;20040;-72
2023/07/02 02:56:04;;;;;;;23.90;8.32;;;14.70;99.90;;;;;;5048854;28;20063;-71
2023/07/02 02:58:29;;;;;;;22.27;8.23;;;14.70;99.90;;;;;;5024499;28;20155;-71
2023/07/02 03:00:55;;;;;;;23.00;8.13;;;14.70;99.90;;;;;;5059160;28;20451;-71
2023/07/02 03:03:22;;;;;;;17.45;7.22;;;14.70;99.90;;;;;;5035267;28;20041;-72
2023/07/02 03:05:48;;;;;;;20.13;7.78;;;14.70;99.90;;;;;;5052866;28;20262;-71
2023/07/02 03:08:14;;;;;;;18.80;7.30;;;14.60;99.90;;;;;;5070755;28;20040;-71
2023/07/02 03:10:40;;;;;;;20.10;8.38;;;14.60;99.90;;;;;;5057384;28;20059;-71
2023/07/02 03:13:05;;;;;;;18.17;8.07;;;14.60;99.90;;;;;;5058106;28;20433;-71
2023/07/02 03:15:31;;;;;;;18.85;8.35;;;14.60;99.90;;;;;;5054165;28;20082;-72
2023/07/02 03:17:56;;;;;;;21.25;7.68;;;14.50;99.90;;;;;;5064846;28;20040;-71
2023/07/02 03:20:22;;;;;;;18.88;8.00;;;14.50;99.90;;;;;;5074550;28;20071;-72
2023/07/02 03:22:48;;;;;;;20.50;8.23;;;14.60;99.90;;;;;;5073641;28;20081;-72
2023/07/02 03:25:13;;;;;;;22.38;8.48;;;14.40;99.90;;;;;;5057661;28;20047;-72
2023/07/02 03:27:39;;;;;;;22.27;7.88;;;14.30;99.90;;;;;;5055333;28;20051;-71
2023/07/02 03:30:05;;;;;;;21.48;7.90;;;14.40;99.90;;;;;;5056672;28;20493;-72
2023/07/02 03:32:31;;;;;;;22.05;7.88;;;14.40;99.90;;;;;;5057631;28;20040;-71
2023/07/02 03:34:56;;;;;;;19.80;7.78;;;14.40;99.90;;;;;;5082165;28;20044;-72
2023/07/02 03:37:22;;;;;;;24.92;8.50;;;14.40;99.90;;;;;;5073545;28;20048;-71
2023/07/02 03:39:48;;;;;;;21.38;8.65;;;14.40;99.90;;;;;;5057701;28;20047;-72
2023/07/02 03:42:13;;;;;;;18.52;7.78;;;14.40;99.90;;;;;;5071203;28;20546;-71
2023/07/02 03:44:40;;;;;;;24.52;7.95;;;14.30;99.90;;;;;;5057662;28;20140;-71
2023/07/02 03:47:08;;;;;;;19.60;7.47;;;14.30;99.90;;;;;;5072682;28;20117;-71
2023/07/02 03:49:33;;;;;;;24.38;8.82;;;14.20;99.90;;;;;;5073020;28;20036;-71
2023/07/02 03:51:59;;;;;;;19.98;8.07;;;14.20;99.90;;;;;;5075255;28;20078;-71
2023/07/02 03:54:25;;;;;;;21.25;8.52;;;14.20;99.90;;;;;;5057147;28;20040;-72
2023/07/02 03:56:50;;;;;;;24.30;9.20;;;14.20;99.90;;;;;;5089736;28;20048;-72
2023/07/02 03:59:16;;;;;;;18.33;7.88;;;14.10;99.90;;;;;;5072250;28;20087;-71
2023/07/02 04:01:41;;;;;;;20.02;7.88;;;14.10;99.90;;;;;;5072423;28;20037;-71
2023/07/02 04:04:07;;;;;;;20.80;8.38;;;14.20;99.90;;;;;;5072402;28;20051;-71
2023/07/02 04:06:34;;;;;;;20.38;8.00;;;14.20;99.90;;;;;;5057047;28;20058;-71
2023/07/02 04:08:59;;;;;;;17.88;7.47;;;14.20;99.90;;;;;;5072144;28;20120;-72
2023/07/02 04:11:25;;;;;;;19.25;8.20;;;14.30;99.90;;;;;;5056420;28;20442;-71
2023/07/02 04:13:50;;;;;;;21.20;8.07;;;14.30;99.90;;;;;;5071317;28;20512;-71
2023/07/02 04:16:16;;;;;;;22.75;8.50;;;14.30;99.90;;;;;;5073513;28;20041;-72
2023/07/02 04:18:42;;;;;;;20.92;8.20;;;14.30;99.90;;;;;;5071549;28;20388;-72
2023/07/02 04:21:07;;;;;;;19.30;8.38;;;14.40;99.90;;;;;;5056741;28;20037;-72
2023/07/02 04:23:33;;;;;;;22.92;7.82;;;14.40;99.90;;;;;;5070183;28;20579;-72
2023/07/02 04:25:58;;;;;;;25.65;8.50;;;14.40;99.90;;;;;;5073730;28;20041;-72
2023/07/02 04:28:25;;;;;;;21.92;8.18;;;14.50;99.90;;;;;;5071036;28;20056;-72
2023/07/02 04:30:51;;;;;;;24.83;9.30;;;14.40;99.90;;;;;;5072002;28;20044;-72
2023/07/02 04:33:17;;;;;;;21.92;8.43;;;14.50;99.90;;;;;;5056555;28;20041;-72
2023/07/02 04:35:43;;;;;;;21.80;8.50;;;14.50;99.90;;;;;;5071266;28;20032;-72
2023/07/02 04:38:08;;;;;;;22.35;8.48;;;14.60;99.90;;;;;;5073007;28;20067;-72
2023/07/02 04:40:34;;;;;;;21.13;8.10;;;14.60;99.90;;;;;;5054149;28;20097;-72
2023/07/02 04:43:00;;;;;;;24.13;9.18;;;14.70;99.90;;;;;;5056839;28;20055;-72
2023/07/02 04:45:27;;;;;;;19.58;7.80;;;14.60;99.90;;;;;;5070655;28;20456;-72
2023/07/02 04:47:52;;;;;;;20.98;8.13;;;14.60;99.90;;;;;;5072907;28;20493;-72
2023/07/02 04:50:18;;;;;;;19.95;7.32;;;14.60;99.90;;;;;;5053992;28;20087;-72
2023/07/02 04:52:44;;;;;;;20.33;7.80;;;14.60;99.90;;;;;;5055982;28;20074;-72
2023/07/02 04:55:10;;;;;;;27.23;8.68;;;14.60;99.90;;;;;;5069358;28;20028;-72
2023/07/02 04:57:36;;;;;;;21.50;8.38;;;14.60;99.90;;;;;;5056243;28;20443;-72
2023/07/02 05:00:03;;;;;;;22.30;8.38;;;14.70;99.90;;;;;;5054364;28;20045;-72
2023/07/02 05:02:29;;;;;;;20.85;8.27;;;14.70;99.90;;;;;;5070084;28;20039;-72
2023/07/02 05:04:55;;;;;;;22.20;8.15;;;14.70;99.90;;;;;;5072495;28;20048;-72
2023/07/02 05:07:20;;;;;;;23.42;8.98;;;14.80;99.90;;;;;;5071193;28;20040;-72
2023/07/02 05:09:48;;;;;;;24.80;8.45;;;14.80;99.90;;;;;;5038445;28;20452;-72
2023/07/02 05:12:13;;;;;;;19.75;7.25;;;14.90;99.90;;;;;;5034049;28;20033;-72
2023/07/02 05:14:39;;;;;;;24.17;8.75;;;15.00;99.90;;;;;;5057967;28;20459;-72
2023/07/02 05:17:05;;;;;;;24.45;8.38;;;15.00;99.90;;;;;;5033060;28;20056;-72
2023/07/02 05:19:30;;;;;;;20.85;7.82;;;15.00;99.90;;;;;;5037341;28;20400;-72
2023/07/02 05:21:56;;;;;;;22.77;7.60;;;15.00;99.90;;;;;;5059725;28;20044;-72
2023/07/02 05:24:21;;;;;;;22.95;7.80;;;15.20;99.90;;;;;;5064055;28;20083;-72
2023/07/02 05:26:47;;;;;;;18.80;6.97;;;15.20;99.90;;;;;;5052470;28;20048;-73
2023/07/02 05:29:14;;;;;;;19.55;6.90;;;15.20;99.90;;;;;;5047648;28;20044;-72
2023/07/02 05:31:39;;;;;;;20.90;7.38;;;15.30;99.90;;;;;;5052620;28;20037;-73
2023/07/02 05:34:05;;;;;;;20.33;7.45;;;15.40;99.90;;;;;;5056295;28;20087;-73
2023/07/02 05:36:30;;;;;;;20.88;7.85;;;15.40;99.90;;;;;;5051142;28;20134;-74
2023/07/02 05:38:56;;;;;;;19.33;7.40;;;15.50;99.90;;;;;;5045417;28;20036;-73
2023/07/02 05:41:22;;;;;;;20.55;7.50;;;15.60;99.90;;;;;;5081262;28;20536;-73
2023/07/02 05:43:48;;;;;;;18.33;7.28;;;15.60;99.90;;;;;;5089113;28;20048;-72
2023/07/02 05:46:15;;;;;;;19.63;6.68;;;15.70;99.90;;;;;;5053381;28;20138;-73
2023/07/02 05:48:41;;;;;;;17.30;5.70;;;15.70;99.90;;;;;;5071188;28;20041;-73
2023/07/02 05:51:08;;;;;;;21.63;6.63;;;15.80;99.90;;;;;;5066147;28;20054;-74
2023/07/02 05:53:33;;;;;;;23.50;7.18;;;16.00;99.90;;;;;;5054986;28;20036;-74
2023/07/02 05:55:59;;;;;;;16.85;6.47;;;16.00;99.90;;;;;;5054196;28;20051;-73
2023/07/02 05:58:25;;;;;;;19.33;6.20;;;16.20;99.90;;;;;;5054136;28;20047;-72
2023/07/02 06:00:50;;;;;;;20.20;6.82;;;16.20;99.90;;;;;;5052306;28;20067;-74
2023/07/02 06:03:20;;;;;;;19.88;6.50;;;16.20;99.90;;;;;;5060046;28;20120;-73
2023/07/02 06:05:48;;;;;;;19.40;5.95;;;16.10;99.90;;;;;;5043242;28;20088;-73
2023/07/02 06:08:15;;;;;;;18.05;5.55;;;16.10;99.90;;;;;;5029395;28;20048;-73
2023/07/02 06:10:42;;;;;;;17.80;6.22;;;16.10;99.90;;;;;;5024210;28;20051;-73
2023/07/02 06:13:07;;;;;;;16.75;5.90;;;16.00;99.90;;;;;;5058847;28;20047;-73
2023/07/02 06:15:33;;;;;;;16.88;6.43;;;16.00;99.90;;;;;;5049762;28;20041;-73
2023/07/02 06:17:59;;;;;;;16.42;6.28;;;15.90;99.90;;;;;;5043998;28;20040;-73
2023/07/02 06:20:24;;;;;;;18.25;6.97;;;16.00;99.90;;;;;;5037009;28;21470;-74
2023/07/02 06:22:50;;;;;;;16.70;6.13;;;16.10;99.90;;;;;;5034884;28;20044;-73
2023/07/02 06:25:15;;;;;;;19.10;6.25;;;16.10;99.90;;;;;;5037152;28;20040;-73
2023/07/02 06:27:41;;;;;;;15.68;5.90;;;16.10;99.90;;;;;;5022472;28;20085;-73
2023/07/02 06:30:07;;;;;;;16.17;5.68;;;16.20;99.90;;;;;;5054724;28;20136;-73
2023/07/02 06:32:32;;;;;;;18.38;5.70;;;16.20;99.90;;;;;;5039125;28;20098;-74
2023/07/02 06:34:58;;;;;;;20.27;5.85;;;16.40;99.90;;;;;;5047814;28;20037;-73
2023/07/02 06:37:24;;;;;;;19.15;6.15;;;16.60;99.90;;;;;;5028965;28;20107;-73
2023/07/02 06:39:49;;;;;;;17.63;6.10;;;16.70;99.90;;;;;;5026020;28;20033;-74
2023/07/02 06:42:15;;;;;;;17.48;5.90;;;16.80;99.90;;;;;;5048955;28;20052;-73
2023/07/02 06:44:41;;;;;;;16.25;6.03;;;17.00;99.90;;;;;;5039693;28;20045;-72
2023/07/02 06:47:06;;;;;;;13.77;4.70;;;17.10;99.90;;;;;;5039361;28;20553;-73
2023/07/02 06:49:32;;;;;;;16.70;5.80;;;17.20;99.90;;;;;;5039058;28;20048;-73
2023/07/02 06:52:00;;;;;;;15.63;5.35;;;17.10;99.90;;;;;;5048527;28;21588;-72
2023/07/02 06:54:25;;;;;;;17.25;5.63;;;17.10;99.90;;;;;;5024891;28;20033;-72
2023/07/02 06:56:51;;;;;;;14.25;5.97;;;17.10;99.90;;;;;;5040161;28;20086;-72
2023/07/02 06:59:23;;;;;;;15.40;5.60;;;17.10;99.90;;;;;;5052897;28;20039;-73
2023/07/02 07:01:52;;;;;;;17.80;5.60;;;17.20;99.90;;;;;;5045682;28;20040;-72
2023/07/02 07:04:18;;;;;;;15.45;5.60;;;17.30;99.90;;;;;;5041518;28;20069;-73
2023/07/02 07:06:44;;;;;;;13.48;5.88;;;17.20;99.90;;;;;;5063095;28;20241;-73
2023/07/02 07:09:09;;;;;;;19.35;5.85;;;17.00;99.90;;;;;;5060659;28;20059;-73
2023/07/02 07:11:35;;;;;;;16.38;5.80;;;17.00;99.90;;;;;;5031888;28;20052;-72
2023/07/02 07:14:01;;;;;;;16.95;5.85;;;16.80;99.90;;;;;;5059051;28;20037;-73
2023/07/02 07:16:26;;;;;;;17.15;4.60;;;16.90;99.90;;;;;;5043856;28;20029;-72
2023/07/02 07:18:52;;;;;;;14.95;4.97;;;16.90;99.90;;;;;;5024764;28;20093;-72
2023/07/02 07:21:18;;;;;;;11.18;3.90;;;17.10;99.90;;;;;;5044142;28;20043;-73
2023/07/02 07:23:43;;;;;;;13.15;4.07;;;17.30;99.90;;;;;;5047902;28;20041;-72
2023/07/02 07:26:09;;;;;;;12.88;4.68;;;17.40;99.90;;;;;;5045319;28;20489;-72
2023/07/02 07:28:35;;;;;;;12.23;3.95;;;17.50;99.90;;;;;;5039335;28;20077;-73
2023/07/02 07:31:01;;;;;;;11.75;3.38;;;17.70;99.90;;;;;;5045938;28;20087;-73
2023/07/02 07:33:27;;;;;;;14.68;3.67;;;17.70;99.90;;;;;;5040180;28;20131;-73
2023/07/02 07:35:52;;;;;;;13.30;3.60;;;17.70;99.90;;;;;;5060261;28;20201;-73
2023/07/02 07:38:18;;;;;;;13.05;3.45;;;17.70;99.90;;;;;;5029364;28;20043;-73
2023/07/02 07:40:44;;;;;;;11.90;3.58;;;17.70;99.90;;;;;;5063846;28;20033;-73
2023/07/02 07:43:09;;;;;;;14.93;3.00;;;17.70;99.90;;;;;;5065041;28;20041;-72
2023/07/02 07:45:35;;;;;;;12.93;3.33;;;17.90;99.90;;;;;;5055525;28;20091;-74
2023/07/02 07:48:01;;;;;;;13.32;4.03;;;18.00;99.90;;;;;;5053743;28;20401;-71
2023/07/02 07:50:27;;;;;;;11.70;3.20;;;18.00;99.90;;;;;;5059046;28;20041;-71
2023/07/02 07:52:53;;;;;;;12.63;3.60;;;18.10;99.90;;;;;;5056213;28;20500;-70
2023/07/02 07:55:19;;;;;;;18.13;4.00;;;18.20;99.90;;;;;;5050732;28;20353;-74
2023/07/02 07:57:44;;;;;;;11.30;3.50;;;18.00;99.90;;;;;;5073827;28;20070;-72
2023/07/02 08:00:10;;;;;;;17.33;3.80;;;17.90;99.90;;;;;;5055265;28;20041;-73
2023/07/02 08:02:36;;;;;;;20.35;3.85;;;17.70;99.90;;;;;;5052934;28;20033;-73
2023/07/02 08:05:03;;;;;;;10.95;3.55;;;17.40;99.90;;;;;;5063711;28;20033;-74
2023/07/02 08:07:28;;;;;;;13.63;3.55;;;17.30;99.90;;;;;;5058631;28;20413;-76
2023/07/02 08:09:54;;;;;;;13.48;3.88;;;17.10;99.90;;;;;;5047330;28;20124;-72
2023/07/02 08:12:19;;;;;;;13.80;3.83;;;16.90;99.90;;;;;;5049476;28;20145;-72
2023/07/02 08:14:45;;;;;;;10.65;3.13;;;17.10;99.90;;;;;;5050612;28;20069;-72
2023/07/02 08:17:11;;;;;;;15.55;3.65;;;17.20;99.90;;;;;;5036244;28;20124;-73
2023/07/02 08:19:36;;;;;;;14.30;3.80;;;17.40;99.90;;;;;;5071480;28;20521;-73
2023/07/02 08:22:02;;;;;;;15.50;4.38;;;17.60;99.90;;;;;;5070033;28;20261;-72
2023/07/02 08:24:30;;;;;;;12.57;3.72;;;17.80;99.90;;;;;;5059371;28;20399;-72
2023/07/02 08:26:56;;;;;;;23.48;4.18;;;18.00;99.90;;;;;;5056349;28;20041;-72
2023/07/02 08:29:22;;;;;;;12.43;3.53;;;17.90;99.90;;;;;;5051242;28;20055;-73
2023/07/02 08:31:47;;;;;;;9.80;3.05;;;17.70;99.90;;;;;;5056464;28;20051;-71
2023/07/02 08:34:13;;;;;;;13.13;3.35;;;17.60;99.90;;;;;;5044741;28;20118;-71
2023/07/02 08:36:39;;;;;;;12.45;3.55;;;17.50;99.90;;;;;;5040339;28;20040;-71
2023/07/02 08:39:04;;;;;;;12.23;3.38;;;17.40;99.90;;;;;;5057251;28;20512;-71
2023/07/02 08:41:31;;;;;;;12.07;3.50;;;17.40;99.90;;;;;;5066002;28;20485;-73
2023/07/02 08:43:59;;;;;;;13.25;3.45;;;17.40;99.90;;;;;;5053321;28;20075;-73
2023/07/02 08:46:24;;;;;;;13.32;3.35;;;17.30;99.90;;;;;;5055566;28;20041;-73
2023/07/02 08:48:50;;;;;;;11.60;4.57;;;17.30;99.90;;;;;;5071897;28;20396;-73
2023/07/02 08:51:16;;;;;;;14.43;3.15;;;17.20;99.90;;;;;;5054839;28;20044;-73
2023/07/02 08:53:41;;;;;;;13.48;3.55;;;17.10;99.90;;;;;;5036261;28;20111;-73
2023/07/02 08:56:07;;;;;;;12.82;3.47;;;17.00;99.90;;;;;;5064544;28;20135;-73
2023/07/02 08:58:32;;;;;;;11.85;3.70;;;17.30;99.90;;;;;;5066753;28;20041;-73
2023/07/02 09:01:07;;;;;;;13.35;3.70;;;17.60;99.90;;;;;;5036528;28;20033;-73
2023/07/02 09:03:32;;;;;;;10.82;4.30;;;17.80;99.90;;;;;;5069747;28;20048;-73
2023/07/02 09:05:58;;;;;;;11.65;3.80;;;18.10;99.90;;;;;;5034608;28;20037;-74
2023/07/02 09:08:25;;;;;;;14.68;3.83;;;18.30;99.90;;;;;;5038959;28;20033;-74
2023/07/02 09:10:51;;;;;;;15.75;4.32;;;18.30;99.90;;;;;;5068592;28;20037;-74
2023/07/02 09:13:16;;;;;;;14.32;4.40;;;18.30;99.90;;;;;;5052055;28;20048;-74
2023/07/02 09:15:42;;;;;;;13.85;4.18;;;18.30;99.90;;;;;;5035641;28;20060;-73
2023/07/02 09:18:18;;;;;;;13.43;4.00;;;18.30;99.90;;;;;;5068156;28;20040;-73
2023/07/02 09:20:44;;;;;;;14.23;4.32;;;18.10;99.90;;;;;;5054019;28;20047;-73
2023/07/02 09:23:10;;;;;;;14.55;4.00;;;17.80;99.90;;;;;;5071250;28;20040;-73
2023/07/02 09:25:40;;;;;;;13.90;4.20;;;17.80;99.90;;;;;;5069966;28;20517;-73
2023/07/02 09:28:19;;;;;;;15.68;4.35;;;17.60;99.90;;;;;;5055548;28;20519;-73
2023/07/02 09:30:56;;;;;;;11.27;3.47;;;17.60;99.90;;;;;;5042675;28;20044;-73
2023/07/02 09:33:24;;;;;;;14.57;3.45;;;17.50;99.90;;;;;;5068245;28;20082;-73
2023/07/02 09:35:51;;;;;;;10.27;3.15;;;17.40;99.90;;;;;;5071507;28;20068;-74
2023/07/02 09:38:19;;;;;;;13.80;3.70;;;17.40;99.90;;;;;;5070925;28;20051;-73
2023/07/02 09:40:50;;;;;;;15.55;4.00;;;17.40;99.90;;;;;;5051857;28;20040;-73
2023/07/02 09:43:17;;;;;;;10.80;3.63;;;17.40;99.90;;;;;;5070667;28;20396;-73
2023/07/02 09:45:45;;;;;;;11.73;4.10;;;17.30;99.90;;;;;;5055129;28;20044;-74
2023/07/02 09:48:14;;;;;;;12.90;3.92;;;17.20;99.90;;;;;;5070486;28;20040;-73
2023/07/02 09:50:43;;;;;;;14.70;4.25;;;17.20;99.90;;;;;;5064716;28;20063;-74
2023/07/02 09:53:10;;;;;;;12.27;4.35;;;17.20;99.90;;;;;;5065708;28;20040;-73
2023/07/02 09:55:36;;;;;;;13.93;4.43;;;17.20;99.90;;;;;;5053683;28;20098;-73
2023/07/02 09:58:02;;;;;;;12.38;4.03;;;17.30;99.90;;;;;;5054976;28;20369;-73
2023/07/02 10:00:27;;;;;;;15.15;3.85;;;17.30;99.90;;;;;;5068223;28;20112;-73
2023/07/02 10:02:53;;;;;;;11.68;4.00;;;17.60;99.90;;;;;;5056818;28;20066;-73
2023/07/02 10:05:26;;;;;;;14.57;3.97;;;17.90;99.90;;;;;;5038199;28;20040;-73
2023/07/02 10:07:52;;;;;;;13.70;4.20;;;18.30;99.90;;;;;;5067149;28;20040;-73
2023/07/02 10:10:31;;;;;;;12.57;4.20;;;18.40;99.90;;;;;;5072760;28;20404;-73
2023/07/02 10:12:57;;;;;;;12.85;4.07;;;18.50;99.90;;;;;;5067489;28;20025;-74
2023/07/02 10:15:28;;;;;;;13.40;3.78;;;18.30;99.90;;;;;;5060504;28;20129;-74
2023/07/02 10:17:58;;;;;;;13.27;3.92;;;18.40;99.90;;;;;;5074918;28;20028;-73
2023/07/02 10:20:38;;;;;;;13.95;3.55;;;18.40;99.90;;;;;;5056020;28;20042;-73
2023/07/02 10:23:09;;;;;;;10.50;3.78;;;18.40;99.90;;;;;;5082563;28;20093;-74
2023/07/02 10:25:38;;;;;;;10.95;3.35;;;18.20;99.90;;;;;;5043545;28;20085;-73
2023/07/02 10:28:26;;;;;;;12.00;3.63;;;18.10;99.90;;;;;;5055275;28;20432;-73
2023/07/02 10:30:53;;;;;;;14.07;3.85;;;18.20;99.90;;;;;;5055068;28;20037;-74
2023/07/02 10:33:19;;;;;;;14.85;3.70;;;18.30;99.90;;;;;;5071200;28;20039;-73
2023/07/02 10:35:49;;;;;;;12.13;3.13;;;18.40;99.90;;;;;;5073244;28;20036;-74
2023/07/02 10:38:22;;;;;;;9.80;2.20;;;18.50;99.90;;;;;;5058077;28;20051;-73
2023/07/02 10:40:58;;;;;;;6.88;1.98;;;18.60;99.90;;;;;;5070996;28;20037;-73
2023/07/02 10:43:28;;;;;;;7.47;2.50;;;18.60;99.90;;;;;;5073895;28;20467;-73
2023/07/02 10:45:54;;;;;;;9.43;2.70;;;18.40;99.90;;;;;;5074349;28;20400;-73
2023/07/02 10:48:20;;;;;;;13.38;3.38;;;18.20;99.90;;;;;;5058053;28;20084;-73
2023/07/02 10:50:46;;;;;;;11.10;2.97;;;18.40;99.90;;;;;;5042419;28;20080;-73
2023/07/02 10:53:16;;;;;;;10.75;2.70;;;18.50;99.90;;;;;;5055585;28;20066;-73
2023/07/02 10:55:42;;;;;;;8.82;2.45;;;18.60;99.90;;;;;;5053980;28;20119;-74
2023/07/02 10:58:09;;;;;;;10.25;2.67;;;18.80;99.90;;;;;;5053562;28;20037;-73
2023/07/02 11:00:48;;;;;;;7.28;2.63;;;18.80;99.90;;;;;;5054230;28;20049;-74
2023/07/02 11:03:24;;;;;;;9.15;2.45;;;18.60;99.90;;;;;;5044513;28;20033;-74
2023/07/02 11:05:51;;;;;;;10.30;2.92;;;18.60;99.90;;;;;;5067925;28;20123;-73
2023/07/02 11:08:17;;;;;;;10.90;2.97;;;18.80;99.90;;;;;;5052460;28;20037;-74
2023/07/02 11:10:43;;;;;;;9.40;2.80;;;18.80;99.90;;;;;;5072808;28;20036;-74
2023/07/02 11:13:13;;;;;;;10.32;2.72;;;18.90;99.90;;;;;;5068746;28;20040;-73
2023/07/02 11:15:40;;;;;;;12.68;3.15;;;18.90;99.90;;;;;;5067114;28;20077;-74
2023/07/02 11:18:13;;;;;;;9.18;2.85;;;18.80;99.90;;;;;;5055341;28;20048;-75
2023/07/02 11:20:40;;;;;;;11.15;3.20;;;18.90;99.90;;;;;;5046295;28;20091;-74
2023/07/02 11:23:17;;;;;;;11.25;3.28;;;19.00;99.90;;;;;;5054435;28;20045;-74
2023/07/02 11:25:53;;;;;;;11.98;3.22;;;19.20;99.90;;;;;;5064127;28;20045;-74
2023/07/02 11:28:18;;;;;;;15.30;3.15;;;19.20;99.90;;;;;;5074303;28;20060;-74
2023/07/02 11:30:47;;;;;;;7.63;2.90;;;19.00;99.90;;;;;;5057176;28;20609;-74
2023/07/02 11:33:13;;;;;;;9.90;3.00;;;19.00;99.90;;;;;;5054611;28;20090;-74
2023/07/02 11:35:43;;;;;;;8.57;2.90;;;18.80;99.90;;;;;;5055546;28;20041;-74
2023/07/02 11:38:12;;;;;;;11.18;2.85;;;18.60;99.90;;;;;;5055976;28;20036;-74
2023/07/02 11:40:38;;;;;;;11.18;3.20;;;18.80;99.90;;;;;;5070830;28;20043;-75
2023/07/02 11:43:05;;;;;;;10.10;2.45;;;18.90;99.90;;;;;;5073309;28;20382;-74
2023/07/02 11:45:31;;;;;;;8.32;3.13;;;18.80;99.90;;;;;;5056887;28;20041;-74
2023/07/02 11:47:57;;;;;;;10.50;3.30;;;18.70;99.90;;;;;;5058811;28;20053;-75
2023/07/02 11:50:22;;;;;;;10.23;3.05;;;18.70;99.90;;;;;;5073621;28;20037;-74
2023/07/02 11:52:48;;;;;;;9.07;2.97;;;18.80;99.90;;;;;;5057399;28;20051;-75
2023/07/02 11:55:14;;;;;;;12.40;3.17;;;18.80;99.90;;;;;;5054861;28;20123;-75
2023/07/02 11:57:39;;;;;;;10.35;3.10;;;18.80;99.90;;;;;;5071788;28;20444;-75
2023/07/02 12:00:05;;;;;;;10.07;3.13;;;18.70;99.90;;;;;;5071462;28;20053;-74
2023/07/02 12:02:31;;;;;;;11.80;2.88;;;18.60;99.90;;;;;;5053890;28;20068;-74
2023/07/02 12:04:57;;;;;;;11.55;3.20;;;18.60;99.90;;;;;;5071015;28;20113;-75
2023/07/02 12:07:22;;;;;;;11.80;2.90;;;18.50;99.90;;;;;;5037807;28;20040;-74
2023/07/02 12:09:48;;;;;;;8.82;2.45;;;18.40;99.90;;;;;;5065880;28;20403;-74
2023/07/02 12:12:13;;;;;;;9.10;2.70;;;18.30;99.90;;;;;;5055125;28;20083;-74
2023/07/02 12:14:43;;;;;;;10.68;3.03;;;18.50;99.90;;;;;;5054306;28;20041;-75
2023/07/02 12:17:09;;;;;;;10.43;2.67;;;18.80;99.90;;;;;;5072932;28;20422;-74
2023/07/02 12:19:38;;;;;;;8.02;2.70;;;18.90;99.90;;;;;;5071225;28;20053;-74
2023/07/02 12:22:04;;;;;;;8.90;2.45;;;19.20;99.90;;;;;;5043640;28;20127;-75
2023/07/02 12:24:30;;;;;;;12.80;2.90;;;19.00;99.90;;;;;;5055241;28;20152;-74
2023/07/02 12:26:55;;;;;;;9.63;2.47;;;19.00;99.90;;;;;;5055253;28;20068;-74
2023/07/02 12:29:21;;;;;;;8.80;2.63;;;18.70;99.90;;;;;;5069956;28;20109;-74
2023/07/02 12:31:46;;;;;;;8.43;2.78;;;18.80;99.90;;;;;;5071262;28;20064;-74
2023/07/02 12:34:12;;;;;;;8.25;2.30;;;18.70;99.90;;;;;;5055515;28;20036;-74